createdAt,value
2023-05-22T00:00:35.874Z,11.91
2023-05-22T00:03:07.300Z,11.85
2023-05-22T00:05:39.347Z,11.83
2023-05-22T00:08:12.943Z,11.74
2023-05-22T00:10:43.451Z,11.67
2023-05-22T00:13:13.729Z,11.61
2023-05-22T00:15:44.035Z,11.56
2023-05-22T00:18:14.291Z,11.50
2023-05-22T00:20:46.695Z,11.43
2023-05-22T00:23:19.705Z,11.37
2023-05-22T00:25:50.970Z,11.33
2023-05-22T00:28:21.269Z,11.30
2023-05-22T00:30:51.562Z,11.24
2023-05-22T00:33:21.912Z,11.19
2023-05-22T00:35:52.223Z,11.15
2023-05-22T00:38:36.780Z,11.07
2023-05-22T00:41:09.005Z,11.05
2023-05-22T00:43:41.494Z,10.97
2023-05-22T00:46:12.885Z,10.91
2023-05-22T00:48:43.251Z,10.90
2023-05-22T00:51:13.982Z,10.86
2023-05-22T00:53:47.258Z,10.82
2023-05-22T00:56:18.784Z,10.79
2023-05-22T00:58:49.154Z,10.73
2023-05-22T01:01:20.011Z,10.69
2023-05-22T01:03:51.017Z,10.67
2023-05-22T01:06:21.803Z,10.63
2023-05-22T01:08:54.702Z,10.57
2023-05-22T01:11:31.454Z,10.49
2023-05-22T01:14:11.049Z,10.47
2023-05-22T01:16:52.069Z,10.38
2023-05-22T01:19:50.824Z,10.31
2023-05-22T01:22:38.954Z,10.23
2023-05-22T01:25:39.393Z,10.20
2023-05-22T01:28:29.111Z,10.15
2023-05-22T01:31:05.224Z,10.11
2023-05-22T01:33:40.458Z,10.06
2023-05-22T01:36:12.377Z,10.03
2023-05-22T01:38:44.434Z,9.99
2023-05-22T01:41:15.165Z,9.97
2023-05-22T01:43:45.680Z,9.90
2023-05-22T01:46:18.940Z,9.87
2023-05-22T01:48:49.273Z,9.82
2023-05-22T01:51:28.737Z,9.78
2023-05-22T01:54:14.807Z,9.69
2023-05-22T01:56:55.132Z,9.65
2023-05-22T01:59:37.728Z,9.62
2023-05-22T02:02:14.221Z,9.57
2023-05-22T02:04:49.610Z,9.56
2023-05-22T02:07:23.053Z,9.52
2023-05-22T02:09:55.262Z,9.50
2023-05-22T02:12:26.695Z,9.47
2023-05-22T02:14:57.784Z,9.43
2023-05-22T02:17:30.956Z,9.39
2023-05-22T02:20:01.317Z,9.36
2023-05-22T02:22:32.113Z,9.33
2023-05-22T02:25:02.370Z,9.31
2023-05-22T02:27:32.818Z,9.29
2023-05-22T02:30:03.461Z,9.25
2023-05-22T02:32:36.498Z,9.20
2023-05-22T02:35:07.528Z,9.12
2023-05-22T02:37:38.176Z,9.09
2023-05-22T02:40:10.503Z,9.04
2023-05-22T02:42:40.899Z,8.99
2023-05-22T02:45:13.384Z,8.97
2023-05-22T02:47:46.378Z,8.92
2023-05-22T02:50:16.768Z,8.89
2023-05-22T02:52:47.034Z,8.90
2023-05-22T02:55:17.648Z,8.87
2023-05-22T02:57:47.971Z,8.81
2023-05-22T03:00:19.904Z,8.78
2023-05-22T03:02:52.815Z,8.72
2023-05-22T03:05:23.453Z,8.68
2023-05-22T03:07:53.741Z,8.66
2023-05-22T03:10:24.031Z,8.67
2023-05-22T03:12:54.790Z,8.57
2023-05-22T03:15:25.141Z,8.56
2023-05-22T03:17:58.014Z,8.51
2023-05-22T03:20:28.472Z,8.49
2023-05-22T03:22:58.765Z,8.43
2023-05-22T03:25:29.069Z,8.37
2023-05-22T03:27:59.340Z,8.38
2023-05-22T03:30:29.714Z,8.34
2023-05-22T03:33:02.665Z,8.32
2023-05-22T03:35:33.020Z,8.26
2023-05-22T03:38:03.327Z,8.25
2023-05-22T03:40:33.603Z,8.23
2023-05-22T03:43:03.955Z,8.21
2023-05-22T03:45:34.333Z,8.22
2023-05-22T03:48:07.764Z,8.14
2023-05-22T03:50:38.434Z,8.13
2023-05-22T03:53:08.929Z,8.15
2023-05-22T03:55:39.633Z,8.13
2023-05-22T03:58:10.251Z,8.07
2023-05-22T04:00:41.270Z,8.04
2023-05-22T04:03:14.895Z,8.03
2023-05-22T04:05:45.381Z,8.04
2023-05-22T04:08:15.706Z,8.02
2023-05-22T04:10:46.799Z,8.00
2023-05-22T04:13:17.714Z,8.00
2023-05-22T04:15:48.096Z,8.01
2023-05-22T04:18:20.969Z,8.01
2023-05-22T04:20:52.176Z,8.02
2023-05-22T04:23:22.931Z,8.01
2023-05-22T04:25:53.560Z,8.03
2023-05-22T04:28:26.956Z,8.06
2023-05-22T04:30:57.847Z,8.04
2023-05-22T04:33:34.665Z,8.04
2023-05-22T04:36:05.353Z,8.06
2023-05-22T04:38:37.387Z,8.06
2023-05-22T04:41:08.876Z,8.13
2023-05-22T04:43:40.233Z,8.13
2023-05-22T04:46:10.783Z,8.19
2023-05-22T04:48:43.700Z,8.25
2023-05-22T04:51:14.588Z,8.28
2023-05-22T04:53:46.454Z,8.31
2023-05-22T04:56:27.931Z,8.34
2023-05-22T04:59:05.773Z,8.31
2023-05-22T05:01:36.139Z,8.34
2023-05-22T05:04:09.096Z,8.42
2023-05-22T05:06:43.531Z,8.50
2023-05-22T05:09:13.928Z,8.89
2023-05-22T05:11:44.215Z,9.40
2023-05-22T05:14:14.490Z,10.00
2023-05-22T05:16:44.796Z,10.63
2023-05-22T05:19:18.114Z,11.21
2023-05-22T05:21:48.848Z,11.74
2023-05-22T05:24:20.339Z,12.26
2023-05-22T05:26:50.685Z,12.77
2023-05-22T05:29:21.039Z,13.20
2023-05-22T05:31:51.640Z,13.69
2023-05-22T05:34:24.523Z,14.11
2023-05-22T05:36:57.507Z,14.52
2023-05-22T05:39:27.843Z,14.85
2023-05-22T05:41:58.176Z,15.25
2023-05-22T05:44:28.558Z,15.60
2023-05-22T05:46:58.870Z,15.87
2023-05-22T05:49:33.053Z,16.13
2023-05-22T05:52:05.360Z,16.49
2023-05-22T05:54:35.612Z,16.70
2023-05-22T05:57:06.228Z,17.01
2023-05-22T05:59:36.509Z,17.18
2023-05-22T06:02:06.937Z,17.45
2023-05-22T06:04:39.809Z,17.70
2023-05-22T06:07:10.112Z,17.88
2023-05-22T06:09:40.935Z,18.13
2023-05-22T06:12:13.399Z,18.35
2023-05-22T06:14:43.684Z,18.44
2023-05-22T06:17:14.019Z,18.51
2023-05-22T06:19:46.926Z,18.57
2023-05-22T06:22:17.333Z,18.60
2023-05-22T06:24:47.589Z,18.54
2023-05-22T06:27:17.893Z,18.54
2023-05-22T06:29:48.221Z,18.74
2023-05-22T06:32:18.804Z,18.75
2023-05-22T06:34:52.764Z,19.17
2023-05-22T06:37:23.056Z,19.43
2023-05-22T06:39:53.319Z,19.64
2023-05-22T06:42:23.670Z,19.84
2023-05-22T06:44:54.003Z,19.86
2023-05-22T06:47:24.453Z,19.99
2023-05-22T06:49:57.372Z,19.84
2023-05-22T06:52:27.704Z,19.76
2023-05-22T06:55:04.586Z,19.65
2023-05-22T06:57:35.213Z,19.72
2023-05-22T07:00:07.897Z,19.65
2023-05-22T07:02:38.357Z,19.62
2023-05-22T07:05:11.991Z,19.57
2023-05-22T07:07:42.272Z,19.57
2023-05-22T07:10:13.782Z,19.52
2023-05-22T07:12:44.069Z,19.49
2023-05-22T07:15:15.057Z,19.57
2023-05-22T07:17:45.450Z,19.64
2023-05-22T07:20:18.834Z,19.41
2023-05-22T07:22:49.136Z,19.64
2023-05-22T07:25:20.250Z,19.74
2023-05-22T07:27:50.585Z,19.74
2023-05-22T07:30:20.976Z,19.74
2023-05-22T07:32:51.671Z,19.68
2023-05-22T07:35:24.764Z,19.40
2023-05-22T07:37:55.123Z,19.18
2023-05-22T07:40:26.570Z,18.92
2023-05-22T07:42:57.351Z,18.87
2023-05-22T07:45:27.632Z,18.88
2023-05-22T07:47:59.292Z,18.99
2023-05-22T07:50:33.420Z,18.99
2023-05-22T07:53:04.816Z,19.07
2023-05-22T07:55:35.314Z,19.01
2023-05-22T07:58:05.951Z,18.96
2023-05-22T08:00:36.285Z,18.99
2023-05-22T08:03:07.041Z,18.89
2023-05-22T08:05:40.057Z,18.92
2023-05-22T08:08:10.618Z,19.08
2023-05-22T08:10:58.132Z,19.14
2023-05-22T08:13:31.575Z,19.11
2023-05-22T08:16:01.905Z,19.24
2023-05-22T08:18:32.316Z,19.23
2023-05-22T08:21:05.195Z,19.13
2023-05-22T08:23:36.543Z,19.03
2023-05-22T08:26:08.994Z,18.97
2023-05-22T08:28:42.303Z,19.01
2023-05-22T08:31:12.653Z,18.97
2023-05-22T08:33:43.382Z,18.94
2023-05-22T08:36:16.586Z,18.94
2023-05-22T08:38:46.855Z,18.97
2023-05-22T08:41:17.620Z,19.00
2023-05-22T08:43:47.995Z,19.03
2023-05-22T08:46:20.374Z,19.10
2023-05-22T08:48:52.386Z,19.09
2023-05-22T08:51:31.765Z,19.26
2023-05-22T08:54:04.213Z,19.31
2023-05-22T08:56:37.309Z,19.32
2023-05-22T08:59:11.551Z,19.40
2023-05-22T09:01:41.934Z,19.57
2023-05-22T09:04:12.364Z,19.56
2023-05-22T09:06:45.373Z,19.50
2023-05-22T09:09:15.644Z,19.55
2023-05-22T09:11:45.959Z,19.50
2023-05-22T09:14:16.351Z,19.51
2023-05-22T09:16:50.001Z,19.54
2023-05-22T09:19:20.860Z,19.74
2023-05-22T09:21:55.216Z,19.87
2023-05-22T09:24:25.559Z,20.06
2023-05-22T09:26:56.146Z,19.96
2023-05-22T09:29:26.639Z,20.02
2023-05-22T09:31:57.830Z,20.02
2023-05-22T09:34:33.185Z,20.10
2023-05-22T09:37:09.716Z,20.17
2023-05-22T09:39:44.120Z,20.27
2023-05-22T09:42:19.513Z,20.31
2023-05-22T09:44:52.497Z,20.41
2023-05-22T09:47:22.901Z,20.42
2023-05-22T09:49:53.245Z,20.46
2023-05-22T09:52:27.729Z,20.36
2023-05-22T09:54:59.971Z,20.40
2023-05-22T09:57:33.030Z,20.28
2023-05-22T10:00:11.878Z,20.40
2023-05-22T10:02:47.846Z,20.38
2023-05-22T10:05:22.143Z,20.43
2023-05-22T10:08:00.253Z,20.41
2023-05-22T10:10:31.624Z,20.43
2023-05-22T10:13:06.785Z,20.52
2023-05-22T10:15:38.216Z,20.58
2023-05-22T10:18:09.426Z,20.72
2023-05-22T10:20:40.518Z,20.66
2023-05-22T10:23:13.910Z,20.67
2023-05-22T10:25:44.442Z,20.75
2023-05-22T10:28:18.296Z,20.91
2023-05-22T10:30:56.349Z,21.06
2023-05-22T10:33:32.389Z,21.09
2023-05-22T10:36:09.265Z,21.20
2023-05-22T10:39:07.607Z,21.17
2023-05-22T10:41:38.844Z,21.18
2023-05-22T10:44:10.014Z,21.20
2023-05-22T10:46:40.485Z,21.29
2023-05-22T10:49:10.918Z,21.29
2023-05-22T10:51:41.267Z,21.32
2023-05-22T10:54:14.143Z,21.30
2023-05-22T10:56:44.462Z,21.31
2023-05-22T10:59:14.738Z,21.43
2023-05-22T11:01:45.188Z,21.45
2023-05-22T11:04:16.293Z,21.50
2023-05-22T11:06:49.358Z,21.61
2023-05-22T11:09:32.369Z,21.42
2023-05-22T11:12:21.593Z,21.23
2023-05-22T11:14:54.765Z,21.31
2023-05-22T11:17:27.229Z,21.45
2023-05-22T11:20:06.201Z,21.40
2023-05-22T11:22:41.401Z,21.34
2023-05-22T11:25:19.170Z,21.16
2023-05-22T11:27:51.730Z,21.16
2023-05-22T11:30:22.339Z,21.21
2023-05-22T11:32:52.697Z,21.32
2023-05-22T11:35:24.666Z,21.43
2023-05-22T11:37:56.665Z,21.50
2023-05-22T11:40:31.288Z,21.46
2023-05-22T11:43:02.089Z,21.55
2023-05-22T11:45:32.360Z,21.67
2023-05-22T11:48:02.772Z,21.66
2023-05-22T11:50:41.781Z,21.63
2023-05-22T11:53:13.193Z,21.63
2023-05-22T11:55:46.234Z,21.49
2023-05-22T11:58:18.221Z,21.67
2023-05-22T12:00:48.565Z,21.85
2023-05-22T12:03:18.934Z,21.93
2023-05-22T12:05:49.791Z,21.85
2023-05-22T12:08:20.826Z,21.76
2023-05-22T12:10:54.484Z,21.86
2023-05-22T12:13:29.687Z,21.75
2023-05-22T12:16:02.132Z,21.88
2023-05-22T12:18:39.405Z,22.03
2023-05-22T12:21:10.623Z,22.18
2023-05-22T12:23:51.995Z,22.31
2023-05-22T12:26:25.055Z,22.28
2023-05-22T12:28:56.556Z,22.38
2023-05-22T12:31:27.112Z,22.49
2023-05-22T12:33:58.061Z,22.45
2023-05-22T12:36:37.248Z,22.44
2023-05-22T12:39:12.177Z,22.47
2023-05-22T12:41:45.259Z,22.38
2023-05-22T12:44:19.262Z,22.56
2023-05-22T12:46:50.410Z,22.62
2023-05-22T12:49:21.018Z,22.65
2023-05-22T12:51:51.425Z,22.72
2023-05-22T12:54:21.771Z,22.78
2023-05-22T12:56:54.636Z,22.91
2023-05-22T12:59:24.911Z,22.89
2023-05-22T13:01:55.451Z,22.82
2023-05-22T13:04:26.024Z,22.90
2023-05-22T13:06:56.454Z,22.94
2023-05-22T13:09:26.835Z,22.98
2023-05-22T13:12:00.371Z,22.94
2023-05-22T13:14:30.750Z,23.00
2023-05-22T13:17:01.052Z,23.05
2023-05-22T13:19:31.627Z,23.08
2023-05-22T13:22:02.049Z,23.12
2023-05-22T13:24:32.516Z,23.05
2023-05-22T13:27:05.472Z,23.13
2023-05-22T13:29:36.050Z,23.22
2023-05-22T13:32:06.763Z,23.27
2023-05-22T13:34:37.162Z,23.23
2023-05-22T13:37:08.199Z,23.21
2023-05-22T13:39:38.660Z,23.08
2023-05-22T13:42:12.081Z,23.05
2023-05-22T13:44:42.422Z,23.06
2023-05-22T13:47:13.091Z,22.90
2023-05-22T13:49:43.564Z,22.88
2023-05-22T13:52:13.949Z,22.73
2023-05-22T13:54:44.319Z,22.73
2023-05-22T13:57:17.401Z,22.63
2023-05-22T13:59:47.706Z,22.54
2023-05-22T14:02:19.945Z,22.42
2023-05-22T14:04:51.553Z,22.49
2023-05-22T14:07:22.600Z,22.53
2023-05-22T14:09:52.914Z,22.49
2023-05-22T14:12:25.936Z,22.46
2023-05-22T14:14:56.395Z,22.38
2023-05-22T14:17:27.295Z,22.53
2023-05-22T14:19:59.268Z,22.44
2023-05-22T14:22:29.613Z,22.34
2023-05-22T14:24:59.984Z,22.22
2023-05-22T14:27:33.010Z,22.15
2023-05-22T14:30:03.344Z,22.07
2023-05-22T14:32:33.636Z,22.12
2023-05-22T14:35:03.952Z,22.09
2023-05-22T14:37:34.253Z,22.12
2023-05-22T14:40:04.648Z,22.10
2023-05-22T14:42:37.946Z,22.04
2023-05-22T14:45:09.711Z,22.03
2023-05-22T14:47:41.046Z,21.81
2023-05-22T14:50:18.895Z,21.84
2023-05-22T14:52:50.613Z,21.94
2023-05-22T14:55:22.001Z,21.96
2023-05-22T14:58:00.212Z,21.97
2023-05-22T15:00:33.997Z,21.91
2023-05-22T15:03:04.456Z,21.80
2023-05-22T15:05:34.976Z,21.93
2023-05-22T15:08:05.282Z,21.93
2023-05-22T15:10:35.616Z,21.77
2023-05-22T15:13:08.603Z,21.81
2023-05-22T15:15:39.149Z,21.82
2023-05-22T15:18:09.945Z,21.67
2023-05-22T15:20:40.247Z,21.52
2023-05-22T15:23:10.549Z,21.39
2023-05-22T15:25:41.414Z,21.41
2023-05-22T15:28:14.706Z,21.40
2023-05-22T15:30:45.028Z,21.22
2023-05-22T15:33:15.436Z,21.32
2023-05-22T15:35:47.110Z,21.16
2023-05-22T15:38:17.590Z,21.08
2023-05-22T15:40:47.960Z,21.02
2023-05-22T15:43:20.869Z,20.74
2023-05-22T15:45:51.555Z,20.91
2023-05-22T15:48:21.964Z,20.83
2023-05-22T15:50:52.365Z,20.71
2023-05-22T15:53:23.088Z,20.76
2023-05-22T15:55:53.779Z,20.69
2023-05-22T15:58:26.792Z,20.50
2023-05-22T16:00:57.751Z,20.54
2023-05-22T16:03:28.250Z,20.58
2023-05-22T16:05:58.687Z,20.56
2023-05-22T16:08:29.066Z,20.50
2023-05-22T16:11:01.066Z,20.29
2023-05-22T16:13:34.160Z,20.12
2023-05-22T16:16:06.259Z,20.10
2023-05-22T16:18:36.644Z,20.06
2023-05-22T16:21:07.625Z,20.09
2023-05-22T16:23:37.998Z,20.04
2023-05-22T16:26:08.703Z,20.07
2023-05-22T16:28:41.664Z,20.03
2023-05-22T16:31:13.141Z,19.86
2023-05-22T16:33:43.549Z,19.82
2023-05-22T16:36:14.084Z,19.68
2023-05-22T16:38:45.413Z,19.70
2023-05-22T16:41:15.800Z,19.68
2023-05-22T16:43:48.718Z,19.62
2023-05-22T16:46:19.972Z,19.49
2023-05-22T16:48:50.664Z,19.46
2023-05-22T16:51:21.108Z,19.22
2023-05-22T16:53:53.036Z,19.37
2023-05-22T16:56:23.367Z,19.28
2023-05-22T16:58:56.461Z,19.28
2023-05-22T17:01:27.635Z,19.14
2023-05-22T17:03:58.345Z,19.04
2023-05-22T17:06:29.528Z,18.92
2023-05-22T17:08:59.847Z,18.82
2023-05-22T17:11:30.354Z,18.72
2023-05-22T17:14:03.310Z,18.67
2023-05-22T17:16:34.472Z,18.48
2023-05-22T17:19:04.891Z,18.30
2023-05-22T17:21:35.464Z,18.27
2023-05-22T17:24:05.752Z,18.17
2023-05-22T17:26:36.264Z,18.09
2023-05-22T17:29:11.198Z,18.02
2023-05-22T17:31:41.573Z,17.88
2023-05-22T17:34:11.882Z,17.92
2023-05-22T17:36:43.998Z,17.98
2023-05-22T17:39:15.218Z,18.03
2023-05-22T17:41:45.563Z,17.97
2023-05-22T17:44:18.559Z,17.97
2023-05-22T17:46:49.692Z,17.85
2023-05-22T17:49:20.031Z,17.74
2023-05-22T17:51:50.423Z,17.69
2023-05-22T17:54:20.796Z,17.53
2023-05-22T17:56:51.248Z,17.48
2023-05-22T17:59:24.218Z,17.31
2023-05-22T18:01:54.582Z,17.37
2023-05-22T18:04:24.945Z,17.20
2023-05-22T18:06:55.586Z,17.29
2023-05-22T18:09:25.955Z,17.37
2023-05-22T18:11:56.350Z,17.34
2023-05-22T18:14:29.627Z,17.29
2023-05-22T18:16:59.981Z,17.34
2023-05-22T18:19:30.443Z,17.27
2023-05-22T18:22:00.912Z,17.23
2023-05-22T18:24:32.936Z,17.19
2023-05-22T18:27:03.258Z,17.11
2023-05-22T18:29:36.174Z,17.14
2023-05-22T18:32:09.624Z,17.04
2023-05-22T18:34:40.510Z,17.07
2023-05-22T18:37:10.939Z,16.91
2023-05-22T18:39:41.291Z,16.90
2023-05-22T18:42:11.950Z,16.87
2023-05-22T18:44:46.803Z,16.89
2023-05-22T18:47:18.697Z,16.87
2023-05-22T18:49:49.002Z,16.85
2023-05-22T18:52:19.574Z,16.82
2023-05-22T18:54:50.003Z,16.76
2023-05-22T18:57:20.509Z,16.64
2023-05-22T18:59:53.375Z,16.53
2023-05-22T19:02:24.151Z,16.51
2023-05-22T19:04:54.531Z,16.51
2023-05-22T19:07:25.210Z,16.49
2023-05-22T19:09:55.500Z,16.43
2023-05-22T19:12:28.564Z,16.42
2023-05-22T19:15:03.317Z,16.36
2023-05-22T19:17:33.694Z,16.26
2023-05-22T19:20:07.739Z,16.26
2023-05-22T19:22:38.162Z,16.20
2023-05-22T19:25:10.180Z,16.20
2023-05-22T19:27:40.646Z,16.06
2023-05-22T19:30:16.602Z,16.06
2023-05-22T19:32:47.003Z,15.98
2023-05-22T19:35:17.650Z,15.94
2023-05-22T19:37:48.005Z,15.94
2023-05-22T19:40:18.368Z,15.94
2023-05-22T19:42:48.708Z,15.89
2023-05-22T19:45:21.641Z,15.88
2023-05-22T19:47:51.976Z,15.87
2023-05-22T19:50:22.568Z,15.88
2023-05-22T19:52:52.977Z,15.74
2023-05-22T19:55:23.554Z,15.73
2023-05-22T19:57:53.876Z,15.61
2023-05-22T20:00:28.917Z,15.59
2023-05-22T20:02:59.373Z,15.56
2023-05-22T20:05:29.857Z,15.58
2023-05-22T20:08:01.944Z,15.48
2023-05-22T20:10:33.302Z,15.54
2023-05-22T20:13:05.111Z,15.48
2023-05-22T20:15:38.490Z,15.48
2023-05-22T20:18:09.230Z,15.46
2023-05-22T20:20:39.489Z,15.45
2023-05-22T20:23:13.057Z,15.47
2023-05-22T20:25:43.441Z,15.39
2023-05-22T20:28:13.863Z,15.41
2023-05-22T20:30:46.773Z,15.36
2023-05-22T20:33:17.180Z,15.42
2023-05-22T20:35:50.245Z,15.43
2023-05-22T20:38:22.695Z,15.40
2023-05-22T20:40:53.814Z,15.28
2023-05-22T20:43:26.434Z,15.28
2023-05-22T20:45:59.434Z,15.19
2023-05-22T20:48:29.837Z,15.24
2023-05-22T20:51:00.253Z,15.25
2023-05-22T20:53:30.613Z,15.25
2023-05-22T20:56:00.920Z,15.22
2023-05-22T20:58:31.234Z,15.24
2023-05-22T21:01:04.461Z,15.25
2023-05-22T21:03:34.957Z,15.24
2023-05-22T21:06:07.020Z,15.23
2023-05-22T21:08:38.361Z,15.22
2023-05-22T21:11:09.835Z,15.18
2023-05-22T21:13:40.209Z,15.11
2023-05-22T21:16:13.261Z,15.13
2023-05-22T21:18:43.787Z,15.07
2023-05-22T21:21:14.177Z,15.10
2023-05-22T21:23:44.500Z,15.04
2023-05-22T21:26:14.865Z,15.04
2023-05-22T21:28:45.859Z,15.02
2023-05-22T21:31:18.776Z,15.03
2023-05-22T21:33:49.149Z,14.94
2023-05-22T21:36:19.651Z,14.93
2023-05-22T21:38:50.156Z,14.92
2023-05-22T21:41:20.624Z,14.86
2023-05-22T21:43:50.954Z,14.84
2023-05-22T21:46:25.286Z,14.82
2023-05-22T21:48:56.392Z,14.81
2023-05-22T21:51:26.690Z,14.74
2023-05-22T21:53:57.015Z,14.71
2023-05-22T21:56:27.336Z,14.64
2023-05-22T21:58:57.688Z,14.51
2023-05-22T22:01:30.820Z,14.60
2023-05-22T22:04:01.445Z,14.54
2023-05-22T22:06:31.858Z,14.45
2023-05-22T22:09:03.866Z,14.49
2023-05-22T22:11:34.150Z,14.48
2023-05-22T22:14:04.575Z,14.49
2023-05-22T22:16:40.830Z,14.45
2023-05-22T22:19:11.868Z,14.42
2023-05-22T22:21:42.377Z,14.32
2023-05-22T22:24:13.409Z,14.35
2023-05-22T22:26:43.728Z,14.31
2023-05-22T22:29:14.242Z,14.29
2023-05-22T22:31:47.226Z,14.21
2023-05-22T22:34:17.803Z,14.13
2023-05-22T22:36:48.174Z,14.15
2023-05-22T22:39:18.602Z,14.06
2023-05-22T22:41:48.872Z,14.09
2023-05-22T22:44:19.141Z,14.08
2023-05-22T22:46:52.607Z,13.94
2023-05-22T22:49:22.896Z,14.01
2023-05-22T22:51:53.830Z,13.96
2023-05-22T22:54:24.141Z,13.98
2023-05-22T22:56:54.731Z,13.99
2023-05-22T22:59:25.178Z,13.97
2023-05-22T23:01:58.158Z,13.92
2023-05-22T23:04:28.777Z,13.93
2023-05-22T23:07:00.002Z,13.97
2023-05-22T23:09:30.366Z,13.92
2023-05-22T23:12:00.677Z,13.87
2023-05-22T23:14:31.024Z,13.90
2023-05-22T23:17:03.916Z,13.83
2023-05-22T23:19:34.206Z,13.80
2023-05-22T23:22:04.554Z,13.83
2023-05-22T23:24:34.860Z,13.84
2023-05-22T23:27:05.192Z,13.77
2023-05-22T23:29:35.716Z,13.75
2023-05-22T23:32:09.118Z,13.77
2023-05-22T23:34:39.416Z,13.77
2023-05-22T23:37:09.731Z,13.75
2023-05-22T23:39:40.085Z,13.76
2023-05-22T23:42:12.232Z,13.76
2023-05-22T23:44:42.622Z,13.67
2023-05-22T23:47:17.028Z,13.76
2023-05-22T23:49:47.473Z,13.74
2023-05-22T23:52:17.778Z,13.70
2023-05-22T23:54:48.477Z,13.70
2023-05-22T23:57:18.825Z,13.60
2023-05-22T23:59:49.127Z,13.58
